createdAt,value
2019-03-10T00:01:36.858Z,98510.27
2019-03-10T00:04:08.195Z,98513.77
2019-03-10T00:06:39.663Z,98507.87
2019-03-10T00:09:11.193Z,98509.50
2019-03-10T00:11:42.525Z,98510.28
2019-03-10T00:14:14.663Z,98504.14
2019-03-10T00:16:46.082Z,98506.26
2019-03-10T00:19:17.453Z,98508.16
2019-03-10T00:21:48.732Z,98501.14
2019-03-10T00:24:20.300Z,98531.69
2019-03-10T00:26:51.563Z,98528.48
2019-03-10T00:29:22.905Z,98510.56
2019-03-10T00:31:54.324Z,98517.50
2019-03-10T00:34:25.765Z,98522.59
2019-03-10T00:36:58.772Z,98524.72
2019-03-10T00:40:12.659Z,98538.11
2019-03-10T00:43:25.846Z,98533.56
2019-03-10T00:46:40.638Z,98534.38
2019-03-10T00:50:02.900Z,98522.61
2019-03-10T00:52:41.790Z,98524.18
2019-03-10T00:55:13.128Z,98523.95
2019-03-10T00:57:44.550Z,98528.25
2019-03-10T01:00:17.721Z,98535.23
2019-03-10T01:02:49.106Z,98527.72
2019-03-10T01:05:20.555Z,98526.91
2019-03-10T01:07:51.946Z,98537.09
2019-03-10T01:10:23.211Z,98540.06
2019-03-10T01:12:57.728Z,98540.86
2019-03-10T01:15:29.401Z,98546.23
2019-03-10T01:18:01.847Z,98537.91
2019-03-10T01:20:33.220Z,98548.88
2019-03-10T01:23:04.631Z,98543.75
2019-03-10T01:25:36.214Z,98545.66
2019-03-10T01:28:07.686Z,98539.21
2019-03-10T01:30:46.770Z,98545.37
2019-03-10T01:33:45.905Z,98541.88
2019-03-10T01:36:15.658Z,98547.75
2019-03-10T01:38:47.020Z,98548.00
2019-03-10T01:41:18.306Z,98552.30
2019-03-10T01:43:49.540Z,98547.75
2019-03-10T01:46:20.790Z,98548.00
2019-03-10T01:48:52.303Z,98543.44
2019-03-10T01:51:23.770Z,98539.36
2019-03-10T01:53:55.261Z,98543.34
2019-03-10T01:56:26.910Z,98535.08
2019-03-10T01:58:58.296Z,98542.50
2019-03-10T02:01:29.669Z,98533.14
2019-03-10T02:04:00.996Z,98522.73
2019-03-10T02:06:32.264Z,98518.22
2019-03-10T02:09:05.347Z,98529.38
2019-03-10T02:11:36.692Z,98526.98
2019-03-10T02:14:08.034Z,98524.32
2019-03-10T02:16:39.313Z,98525.30
2019-03-10T02:19:10.638Z,98504.40
2019-03-10T02:21:42.050Z,98508.95
2019-03-10T02:24:23.213Z,98504.68
2019-03-10T02:26:46.379Z,98502.74
2019-03-10T02:29:17.783Z,98504.05
2019-03-10T02:31:49.035Z,98511.52
2019-03-10T02:34:21.945Z,98506.45
2019-03-10T02:36:53.345Z,98506.72
2019-03-10T02:39:24.607Z,98509.84
2019-03-10T02:41:55.909Z,98507.63
2019-03-10T02:44:27.158Z,98511.11
2019-03-10T02:46:58.434Z,98499.56
2019-03-10T02:49:29.925Z,98499.56
2019-03-10T02:52:01.199Z,98493.06
2019-03-10T02:54:32.561Z,98496.04
2019-03-10T02:57:03.844Z,98487.52
2019-03-10T02:59:35.197Z,98487.19
2019-03-10T03:02:06.507Z,98497.57
2019-03-10T03:04:37.958Z,98484.21
2019-03-10T03:07:09.426Z,98496.08
2019-03-10T03:09:40.775Z,98489.39
2019-03-10T03:12:12.049Z,98486.74
2019-03-10T03:14:43.515Z,98484.02
2019-03-10T03:17:14.833Z,98484.02
2019-03-10T03:19:46.107Z,98470.85
2019-03-10T03:22:17.434Z,98462.14
2019-03-10T03:24:49.694Z,98454.05
2019-03-10T03:27:20.941Z,98452.72
2019-03-10T03:29:52.648Z,98454.51
2019-03-10T03:32:24.088Z,98463.95
2019-03-10T03:34:55.517Z,98470.51
2019-03-10T03:37:26.846Z,98470.85
2019-03-10T03:39:59.335Z,98464.32
2019-03-10T03:42:30.647Z,98463.26
2019-03-10T03:45:02.122Z,98466.28
2019-03-10T03:47:33.508Z,98465.36
2019-03-10T03:50:05.255Z,98468.47
2019-03-10T03:52:38.356Z,98471.83
2019-03-10T03:55:09.854Z,98464.03
2019-03-10T03:57:41.822Z,98450.34
2019-03-10T04:00:13.393Z,98460.44
2019-03-10T04:02:44.815Z,98455.81
2019-03-10T04:05:16.252Z,98455.81
2019-03-10T04:07:47.539Z,98457.02
2019-03-10T04:10:18.966Z,98453.75
2019-03-10T04:12:50.239Z,98461.97
2019-03-10T04:15:21.556Z,98458.55
2019-03-10T04:17:52.972Z,98456.38
2019-03-10T04:20:25.993Z,98452.85
2019-03-10T04:22:57.389Z,98448.54
2019-03-10T04:25:28.689Z,98443.16
2019-03-10T04:28:00.165Z,98448.78
2019-03-10T04:30:31.451Z,98449.28
2019-03-10T04:33:02.710Z,98449.51
2019-03-10T04:35:34.118Z,98444.65
2019-03-10T04:38:05.540Z,98438.66
2019-03-10T04:40:36.955Z,98438.66
2019-03-10T04:43:08.312Z,98441.83
2019-03-10T04:45:39.717Z,98430.33
2019-03-10T04:48:11.063Z,98428.41
2019-03-10T04:50:42.618Z,98427.31
2019-03-10T04:53:13.926Z,98420.36
2019-03-10T04:55:50.050Z,98423.52
2019-03-10T04:58:21.481Z,98420.31
2019-03-10T05:00:54.516Z,98402.20
2019-03-10T05:03:25.750Z,98390.55
2019-03-10T05:05:57.400Z,98390.88
2019-03-10T05:08:30.508Z,98390.41
2019-03-10T05:11:01.871Z,98382.70
2019-03-10T05:13:33.148Z,98374.15
2019-03-10T05:16:04.500Z,98367.77
2019-03-10T05:18:35.835Z,98368.06
2019-03-10T05:21:07.338Z,98362.20
2019-03-10T05:23:40.576Z,98355.19
2019-03-10T05:26:12.136Z,98352.54
2019-03-10T05:28:45.437Z,98359.20
2019-03-10T05:31:17.023Z,98364.89
2019-03-10T05:33:48.418Z,98369.84
2019-03-10T05:36:19.805Z,98373.06
2019-03-10T05:38:51.047Z,98376.56
2019-03-10T05:41:22.526Z,98373.44
2019-03-10T05:43:55.638Z,98371.38
2019-03-10T05:46:26.958Z,98369.80
2019-03-10T05:48:58.230Z,98356.02
2019-03-10T05:51:29.738Z,98367.28
2019-03-10T05:54:01.094Z,98360.37
2019-03-10T05:56:32.552Z,98361.18
2019-03-10T05:59:04.050Z,98363.10
2019-03-10T06:01:35.473Z,98357.25
2019-03-10T06:04:06.865Z,98350.61
2019-03-10T06:06:38.526Z,98349.84
2019-03-10T06:09:09.902Z,98345.35
2019-03-10T06:11:42.959Z,98333.39
2019-03-10T06:14:14.218Z,98329.92
2019-03-10T06:16:45.643Z,98325.42
2019-03-10T06:19:16.937Z,98329.72
2019-03-10T06:21:48.228Z,98342.58
2019-03-10T06:24:19.503Z,98362.61
2019-03-10T06:26:50.793Z,98369.72
2019-03-10T06:29:22.094Z,98363.61
2019-03-10T06:31:53.615Z,98356.42
2019-03-10T06:34:26.524Z,98353.19
2019-03-10T06:36:58.003Z,98336.97
2019-03-10T06:39:29.269Z,98344.47
2019-03-10T06:42:00.568Z,98340.49
2019-03-10T06:44:31.847Z,98340.49
2019-03-10T06:47:03.226Z,98332.55
2019-03-10T06:49:34.720Z,98332.34
2019-03-10T06:52:06.031Z,98326.72
2019-03-10T06:54:37.366Z,98320.32
2019-03-10T06:57:08.732Z,98325.43
2019-03-10T06:59:40.320Z,98317.98
2019-03-10T07:02:11.901Z,98309.14
2019-03-10T07:04:43.255Z,98304.57
2019-03-10T07:07:14.690Z,98302.18
2019-03-10T07:09:46.124Z,98298.45
2019-03-10T07:12:17.476Z,98288.80
2019-03-10T07:14:48.885Z,98278.64
2019-03-10T07:17:20.285Z,98280.50
2019-03-10T07:19:51.764Z,98281.31
2019-03-10T07:22:23.071Z,98270.95
2019-03-10T07:24:54.448Z,98257.57
2019-03-10T07:27:29.175Z,98254.61
2019-03-10T07:30:04.661Z,98249.27
2019-03-10T07:32:44.454Z,98249.27
2019-03-10T07:35:33.457Z,98247.93
2019-03-10T07:38:12.210Z,98251.12
2019-03-10T07:41:02.441Z,98250.86
2019-03-10T07:43:52.924Z,98240.97
2019-03-10T07:46:39.357Z,98242.03
2019-03-10T07:49:32.849Z,98235.88
2019-03-10T07:52:20.115Z,98236.66
2019-03-10T07:55:08.183Z,98233.98
2019-03-10T07:57:57.275Z,98237.73
2019-03-10T08:00:46.675Z,98240.41
2019-03-10T08:03:39.361Z,98238.31
2019-03-10T08:06:32.857Z,98237.74
2019-03-10T08:09:21.838Z,98239.59
2019-03-10T08:12:15.444Z,98236.91
2019-03-10T08:15:01.289Z,98242.49
2019-03-10T08:17:42.695Z,98231.73
2019-03-10T08:20:32.995Z,98233.28
2019-03-10T08:23:29.368Z,98232.69
2019-03-10T08:26:12.118Z,98240.19
2019-03-10T08:28:54.244Z,98260.16
2019-03-10T08:31:50.768Z,98234.42
2019-03-10T08:34:41.092Z,98228.66
2019-03-10T08:37:22.258Z,98228.66
2019-03-10T08:40:00.342Z,98230.70
2019-03-10T08:42:46.751Z,98230.95
2019-03-10T08:45:37.151Z,98213.25
2019-03-10T08:48:36.567Z,98218.03
2019-03-10T08:51:21.850Z,98214.85
2019-03-10T08:54:04.022Z,98200.17
2019-03-10T08:57:00.578Z,98192.14
2019-03-10T08:59:38.185Z,98189.46
2019-03-10T09:02:30.152Z,98180.95
2019-03-10T09:05:12.927Z,98174.48
2019-03-10T09:08:14.198Z,98169.41
2019-03-10T09:11:00.264Z,98172.85
2019-03-10T09:13:56.910Z,98165.66
2019-03-10T09:16:50.252Z,98146.46
2019-03-10T09:19:40.543Z,98162.47
2019-03-10T09:22:25.424Z,98159.30
2019-03-10T09:25:10.920Z,98155.85
2019-03-10T09:28:00.710Z,98146.00
2019-03-10T09:30:51.054Z,98128.44
2019-03-10T09:33:46.151Z,98132.71
2019-03-10T09:36:39.272Z,98137.27
2019-03-10T09:39:28.181Z,98115.12
2019-03-10T09:42:19.025Z,98111.11
2019-03-10T09:44:59.367Z,98109.78
2019-03-10T09:47:46.851Z,98123.92
2019-03-10T09:50:39.938Z,98112.45
2019-03-10T09:53:45.730Z,98111.64
2019-03-10T09:56:27.004Z,98111.37
2019-03-10T09:59:15.907Z,98096.70
2019-03-10T10:01:53.659Z,98080.69
2019-03-10T10:04:34.269Z,98089.78
2019-03-10T10:07:12.734Z,98086.83
2019-03-10T10:10:15.552Z,98087.34
2019-03-10T10:13:08.690Z,98089.72
2019-03-10T10:15:54.369Z,98074.29
2019-03-10T10:18:50.856Z,98066.81
2019-03-10T10:21:36.050Z,98059.34
2019-03-10T10:24:16.464Z,98041.73
2019-03-10T10:27:33.443Z,98024.69
2019-03-10T10:30:31.035Z,98012.70
2019-03-10T10:33:24.162Z,97994.84
2019-03-10T10:36:26.692Z,97999.66
2019-03-10T10:39:34.540Z,97990.09
2019-03-10T10:42:43.449Z,97990.09
2019-03-10T10:45:37.407Z,97983.15
2019-03-10T10:48:33.565Z,97985.58
2019-03-10T10:51:18.980Z,97987.44
2019-03-10T10:54:27.734Z,97986.11
2019-03-10T10:57:28.241Z,97978.35
2019-03-10T11:00:05.731Z,97948.24
2019-03-10T11:03:08.163Z,97947.44
2019-03-10T11:05:51.013Z,97947.44
2019-03-10T11:08:30.869Z,97939.44
2019-03-10T11:11:33.108Z,97933.82
2019-03-10T11:14:26.320Z,97926.10
2019-03-10T11:17:15.810Z,97901.05
2019-03-10T11:20:15.719Z,97911.71
2019-03-10T11:23:11.771Z,97885.04
2019-03-10T11:26:03.755Z,97873.81
2019-03-10T11:28:52.933Z,97861.81
2019-03-10T11:31:37.134Z,97893.81
2019-03-10T11:34:27.469Z,97870.33
2019-03-10T11:37:19.748Z,97855.92
2019-03-10T11:40:16.165Z,97861.81
2019-03-10T11:42:55.678Z,97874.09
2019-03-10T11:45:37.521Z,97850.06
2019-03-10T11:48:34.259Z,97843.95
2019-03-10T11:51:23.618Z,97867.14
2019-03-10T11:54:04.327Z,97859.14
2019-03-10T11:56:57.331Z,97828.48
2019-03-10T11:59:33.159Z,97812.75
2019-03-10T12:02:16.275Z,97824.23
2019-03-10T12:04:56.372Z,97824.23
2019-03-10T12:07:52.863Z,97822.37
2019-03-10T12:10:24.339Z,97813.81
2019-03-10T12:12:55.619Z,97812.22
2019-03-10T12:15:26.969Z,97809.02
2019-03-10T12:17:58.424Z,97805.81
2019-03-10T12:20:29.694Z,97804.25
2019-03-10T12:23:01.015Z,97794.34
2019-03-10T12:25:32.360Z,97797.02
2019-03-10T12:28:03.673Z,97799.16
2019-03-10T12:30:34.989Z,97793.83
2019-03-10T12:33:06.725Z,97796.21
2019-03-10T12:35:38.257Z,97807.41
2019-03-10T12:38:09.652Z,97795.12
2019-03-10T12:40:41.136Z,97790.31
2019-03-10T12:43:12.830Z,97781.21
2019-03-10T12:45:44.200Z,97752.14
2019-03-10T12:48:15.630Z,97776.83
2019-03-10T12:50:47.260Z,97776.83
2019-03-10T12:53:18.559Z,97776.22
2019-03-10T12:55:49.918Z,97777.30
2019-03-10T12:58:21.281Z,97775.09
2019-03-10T13:00:52.707Z,97766.00
2019-03-10T13:03:24.087Z,97768.14
2019-03-10T13:05:55.466Z,97768.14
2019-03-10T13:08:27.797Z,97755.25
2019-03-10T13:10:59.649Z,97728.27
2019-03-10T13:13:31.274Z,97728.27
2019-03-10T13:16:02.657Z,97723.36
2019-03-10T13:18:34.131Z,97720.45
2019-03-10T13:21:05.729Z,97718.30
2019-03-10T13:23:37.305Z,97718.62
2019-03-10T13:26:08.804Z,97728.48
2019-03-10T13:28:40.124Z,97713.26
2019-03-10T13:31:11.570Z,97707.15
2019-03-10T13:33:43.107Z,97696.77
2019-03-10T13:36:14.813Z,97683.97
2019-03-10T13:38:46.258Z,97688.98
2019-03-10T13:41:17.807Z,97684.44
2019-03-10T13:43:49.263Z,97680.47
2019-03-10T13:46:20.914Z,97666.57
2019-03-10T13:48:52.376Z,97681.56
2019-03-10T13:51:23.757Z,97665.77
2019-03-10T13:53:55.248Z,97655.39
2019-03-10T13:56:26.826Z,97651.36
2019-03-10T13:58:58.217Z,97646.59
2019-03-10T14:01:29.572Z,97640.71
2019-03-10T14:04:00.885Z,97627.13
2019-03-10T14:06:32.312Z,97625.52
2019-03-10T14:09:04.926Z,97620.98
2019-03-10T14:11:36.247Z,97615.91
2019-03-10T14:14:07.618Z,97615.33
2019-03-10T14:16:39.012Z,97597.16
2019-03-10T14:19:10.787Z,97592.89
2019-03-10T14:21:42.826Z,97580.81
2019-03-10T14:24:14.642Z,97569.59
2019-03-10T14:26:46.023Z,97568.73
2019-03-10T14:29:17.376Z,97561.21
2019-03-10T14:31:50.603Z,97566.48
2019-03-10T14:34:22.087Z,97553.56
2019-03-10T14:36:53.629Z,97549.77
2019-03-10T14:39:25.054Z,97543.14
2019-03-10T14:41:56.877Z,97538.70
2019-03-10T14:44:28.549Z,97534.42
2019-03-10T14:47:00.383Z,97532.21
2019-03-10T14:49:31.825Z,97518.84
2019-03-10T14:52:03.232Z,97504.25
2019-03-10T14:54:34.756Z,97504.25
2019-03-10T14:57:06.261Z,97503.52
2019-03-10T14:59:37.929Z,97500.38
2019-03-10T15:02:09.596Z,97473.99
2019-03-10T15:04:41.009Z,97482.61
2019-03-10T15:07:12.986Z,97473.82
2019-03-10T15:09:44.516Z,97394.29
2019-03-10T15:12:16.170Z,97450.20
2019-03-10T15:14:49.229Z,97448.13
2019-03-10T15:17:20.924Z,97427.52
2019-03-10T15:19:52.437Z,97427.68
2019-03-10T15:22:23.812Z,97423.17
2019-03-10T15:24:56.990Z,97422.05
2019-03-10T15:27:28.387Z,97419.96
2019-03-10T15:29:59.813Z,97425.33
2019-03-10T15:32:31.287Z,97427.41
2019-03-10T15:35:03.016Z,97419.01
2019-03-10T15:37:34.367Z,97413.52
2019-03-10T15:40:05.936Z,97406.50
2019-03-10T15:42:37.378Z,97399.95
2019-03-10T15:45:09.787Z,97390.78
2019-03-10T15:47:41.132Z,97392.63
2019-03-10T15:50:15.479Z,97378.98
2019-03-10T15:52:47.320Z,97381.22
2019-03-10T15:55:18.819Z,97386.23
2019-03-10T15:57:50.883Z,97402.51
2019-03-10T16:00:22.868Z,97405.83
2019-03-10T16:02:54.469Z,97399.06
2019-03-10T16:05:25.962Z,97381.59
2019-03-10T16:07:57.549Z,97395.79
2019-03-10T16:10:29.147Z,97387.91
2019-03-10T16:13:00.502Z,97387.17
2019-03-10T16:15:32.160Z,97395.75
2019-03-10T16:18:03.611Z,97378.52
2019-03-10T16:20:35.021Z,97377.06
2019-03-10T16:23:06.435Z,97380.27
2019-03-10T16:25:37.826Z,97362.48
2019-03-10T16:28:27.651Z,97383.55
2019-03-10T16:30:59.630Z,97362.97
2019-03-10T16:33:31.037Z,97371.54
2019-03-10T16:36:02.498Z,97362.20
2019-03-10T16:38:34.156Z,97369.02
2019-03-10T16:41:05.559Z,97380.02
2019-03-10T16:43:37.022Z,97362.30
2019-03-10T16:46:08.388Z,97360.55
2019-03-10T16:48:39.899Z,97372.50
2019-03-10T16:51:11.384Z,97365.98
2019-03-10T16:53:43.009Z,97355.97
2019-03-10T16:56:14.405Z,97369.52
2019-03-10T16:58:46.234Z,97379.91
2019-03-10T17:01:17.647Z,97398.78
2019-03-10T17:03:48.976Z,97417.28
2019-03-10T17:06:21.842Z,97503.33
2019-03-10T17:08:53.401Z,97477.92
2019-03-10T17:11:25.722Z,97482.44
2019-03-10T17:14:04.421Z,97498.98
2019-03-10T17:16:35.795Z,97512.46
2019-03-10T17:19:09.539Z,97510.70
2019-03-10T17:21:42.031Z,97497.02
2019-03-10T17:24:15.034Z,97526.54
2019-03-10T17:26:46.480Z,97508.37
2019-03-10T17:29:17.875Z,97535.45
2019-03-10T17:31:49.435Z,97499.27
2019-03-10T17:34:20.770Z,97499.66
2019-03-10T17:36:52.435Z,97513.61
2019-03-10T17:39:23.802Z,97521.11
2019-03-10T17:41:55.456Z,97519.00
2019-03-10T17:44:27.127Z,97537.86
2019-03-10T17:46:58.738Z,97544.40
2019-03-10T17:49:30.471Z,97526.70
2019-03-10T17:52:02.179Z,97516.03
2019-03-10T17:54:33.832Z,97529.22
2019-03-10T17:57:05.186Z,97525.20
2019-03-10T17:59:37.022Z,97535.49
2019-03-10T18:02:09.510Z,97535.49
2019-03-10T18:04:41.027Z,97559.81
2019-03-10T18:07:12.610Z,97541.65
2019-03-10T18:09:44.235Z,97534.23
2019-03-10T18:12:16.536Z,97518.00
2019-03-10T18:14:48.132Z,97544.39
2019-03-10T18:17:19.555Z,97563.80
2019-03-10T18:19:50.899Z,97573.28
2019-03-10T18:22:23.371Z,97568.41
2019-03-10T18:24:54.876Z,97582.61
2019-03-10T18:27:26.229Z,97587.28
2019-03-10T18:29:57.651Z,97583.69
2019-03-10T18:32:29.075Z,97582.12
2019-03-10T18:35:02.103Z,97589.69
2019-03-10T18:37:34.111Z,97591.11
2019-03-10T18:40:06.706Z,97606.64
2019-03-10T18:42:38.407Z,97583.84
2019-03-10T18:45:11.600Z,97605.91
2019-03-10T18:47:43.065Z,97614.02
2019-03-10T18:50:15.930Z,97625.77
2019-03-10T18:52:50.336Z,97639.15
2019-03-10T18:55:22.445Z,97621.33
2019-03-10T18:57:54.378Z,97616.89
2019-03-10T19:00:25.857Z,97604.34
2019-03-10T19:02:57.500Z,97600.14
2019-03-10T19:05:29.129Z,97631.81
2019-03-10T19:08:02.327Z,97623.65
2019-03-10T19:10:33.722Z,97623.11
2019-03-10T19:13:05.957Z,97645.40
2019-03-10T19:15:38.874Z,97646.42
2019-03-10T19:18:10.239Z,97653.36
2019-03-10T19:20:42.165Z,97660.91
2019-03-10T19:23:13.538Z,97644.78
2019-03-10T19:25:45.019Z,97663.58
2019-03-10T19:28:16.574Z,97674.95
2019-03-10T19:30:48.022Z,97661.44
2019-03-10T19:33:19.537Z,97664.16
2019-03-10T19:35:50.862Z,97667.56
2019-03-10T19:38:22.383Z,97693.25
2019-03-10T19:40:53.852Z,97678.15
2019-03-10T19:43:25.885Z,97690.07
2019-03-10T19:45:57.679Z,97716.53
2019-03-10T19:48:29.049Z,97702.67
2019-03-10T19:51:02.098Z,97714.89
2019-03-10T19:53:33.582Z,97716.19
2019-03-10T19:56:05.484Z,97733.84
2019-03-10T19:58:38.553Z,97740.80
2019-03-10T20:01:10.068Z,97742.72
2019-03-10T20:03:41.418Z,97742.72
2019-03-10T20:06:12.844Z,97750.48
2019-03-10T20:08:51.653Z,97764.76
2019-03-10T20:11:25.074Z,97768.55
2019-03-10T20:13:56.474Z,97784.86
2019-03-10T20:16:27.827Z,97778.62
2019-03-10T20:18:59.246Z,97789.14
2019-03-10T20:21:30.739Z,97779.53
2019-03-10T20:24:02.075Z,97786.86
2019-03-10T20:26:33.910Z,97804.84
2019-03-10T20:29:05.544Z,97814.48
2019-03-10T20:31:37.008Z,97802.77
2019-03-10T20:34:08.408Z,97812.64
2019-03-10T20:36:39.726Z,97812.11
2019-03-10T20:39:11.004Z,97818.00
2019-03-10T20:41:42.547Z,97829.10
2019-03-10T20:44:14.154Z,97827.97
2019-03-10T20:46:45.542Z,97825.05
2019-03-10T20:49:16.913Z,97838.13
2019-03-10T20:51:48.366Z,97825.36
2019-03-10T20:54:20.797Z,97852.70
2019-03-10T20:56:53.892Z,97863.47
2019-03-10T20:59:25.187Z,97858.36
2019-03-10T21:01:56.495Z,97866.83
2019-03-10T21:04:28.144Z,97866.83
2019-03-10T21:07:00.853Z,97863.03
2019-03-10T21:09:32.494Z,97878.08
2019-03-10T21:12:03.878Z,97905.41
2019-03-10T21:14:36.051Z,97903.80
2019-03-10T21:17:07.977Z,97890.92
2019-03-10T21:19:39.757Z,97911.09
2019-03-10T21:22:11.051Z,97898.52
2019-03-10T21:24:42.379Z,97889.16
2019-03-10T21:27:13.739Z,97870.47
2019-03-10T21:29:45.187Z,97907.22
2019-03-10T21:32:16.593Z,97863.05
2019-03-10T21:34:47.943Z,97878.41
2019-03-10T21:37:19.424Z,97887.27
2019-03-10T21:39:50.702Z,97882.16
2019-03-10T21:42:23.661Z,97891.02
2019-03-10T21:44:54.981Z,97900.68
2019-03-10T21:47:26.298Z,97897.23
2019-03-10T21:49:59.479Z,97905.80
2019-03-10T21:52:30.768Z,97912.02
2019-03-10T21:55:02.153Z,97905.83
2019-03-10T21:57:35.148Z,97911.20
2019-03-10T22:00:07.883Z,97918.95
2019-03-10T22:02:39.213Z,97924.06
2019-03-10T22:05:12.449Z,97924.06
2019-03-10T22:07:43.745Z,97933.36
2019-03-10T22:10:26.383Z,97921.33
2019-03-10T22:12:48.513Z,97924.55
2019-03-10T22:15:19.965Z,97931.75
2019-03-10T22:17:51.210Z,97930.73
2019-03-10T22:20:22.477Z,97925.06
2019-03-10T22:22:53.788Z,97924.09
2019-03-10T22:25:25.155Z,97932.97
2019-03-10T22:27:56.653Z,97947.70
2019-03-10T22:30:28.022Z,97947.70
2019-03-10T22:32:59.428Z,97938.36
2019-03-10T22:35:30.727Z,97945.88
2019-03-10T22:38:02.090Z,97945.05
2019-03-10T22:40:33.347Z,97952.00
2019-03-10T22:43:04.744Z,97967.18
2019-03-10T22:45:36.354Z,97967.18
2019-03-10T22:48:07.797Z,97978.12
2019-03-10T22:50:39.050Z,97985.91
2019-03-10T22:53:10.455Z,98081.61
2019-03-10T22:55:41.721Z,98130.09
2019-03-10T22:58:14.845Z,98121.63
2019-03-10T23:00:50.540Z,98097.77
2019-03-10T23:03:23.384Z,98092.59
2019-03-10T23:05:54.637Z,98081.27
2019-03-10T23:08:27.632Z,98106.81
2019-03-10T23:10:59.003Z,98105.33
2019-03-10T23:13:30.369Z,98121.73
2019-03-10T23:16:01.742Z,98120.94
2019-03-10T23:18:33.099Z,98155.13
2019-03-10T23:21:07.471Z,98213.05
2019-03-10T23:23:39.819Z,98174.77
2019-03-10T23:26:11.193Z,98184.59
2019-03-10T23:28:42.833Z,98178.48
2019-03-10T23:31:14.160Z,98153.97
2019-03-10T23:33:45.656Z,98148.98
2019-03-10T23:36:16.978Z,98152.95
2019-03-10T23:38:48.485Z,98166.36
2019-03-10T23:41:19.760Z,98169.13
2019-03-10T23:43:51.163Z,98185.47
2019-03-10T23:46:22.564Z,98172.16
2019-03-10T23:48:53.840Z,98198.95
2019-03-10T23:51:25.639Z,98195.39
2019-03-10T23:53:57.185Z,98217.50
2019-03-10T23:56:30.207Z,98221.75
2019-03-10T23:59:01.553Z,98221.76
